sensor_id;sensor_type;location;lat;lon;timestamp;pressure;altitude;pressure_sealevel;temperature;humidity
58668;BME280;59852;43.086;25.634;2023-05-02T00:01:25;99340.44;;;13.28;55.47
58668;BME280;59852;43.086;25.634;2023-05-02T00:03:50;99342.94;;;12.93;55.64
58668;BME280;59852;43.086;25.634;2023-05-02T00:06:16;99346.47;;;13.05;54.50
58668;BME280;59852;43.086;25.634;2023-05-02T00:08:41;99345.09;;;13.12;54.75
58668;BME280;59852;43.086;25.634;2023-05-02T00:11:07;99344.00;;;12.90;55.42
58668;BME280;59852;43.086;25.634;2023-05-02T00:13:32;99346.94;;;12.99;55.59
58668;BME280;59852;43.086;25.634;2023-05-02T00:15:57;99348.38;;;13.03;55.87
58668;BME280;59852;43.086;25.634;2023-05-02T00:18:23;99348.91;;;12.95;55.61
58668;BME280;59852;43.086;25.634;2023-05-02T00:20:48;99348.50;;;13.01;55.74
58668;BME280;59852;43.086;25.634;2023-05-02T00:23:14;99351.34;;;12.85;55.74
58668;BME280;59852;43.086;25.634;2023-05-02T00:25:45;99345.78;;;12.90;55.39
58668;BME280;59852;43.086;25.634;2023-05-02T00:28:10;99355.47;;;12.89;55.80
58668;BME280;59852;43.086;25.634;2023-05-02T00:30:41;99353.44;;;12.93;56.30
58668;BME280;59852;43.086;25.634;2023-05-02T00:33:06;99350.94;;;12.91;55.94
58668;BME280;59852;43.086;25.634;2023-05-02T00:35:32;99356.94;;;12.81;56.50
58668;BME280;59852;43.086;25.634;2023-05-02T00:37:58;99349.50;;;12.75;56.48
58668;BME280;59852;43.086;25.634;2023-05-02T00:40:23;99357.50;;;12.97;56.92
58668;BME280;59852;43.086;25.634;2023-05-02T00:42:48;99351.03;;;12.90;57.37
58668;BME280;59852;43.086;25.634;2023-05-02T00:45:14;99350.28;;;12.88;56.87
58668;BME280;59852;43.086;25.634;2023-05-02T00:47:39;99350.03;;;12.80;57.47
58668;BME280;59852;43.086;25.634;2023-05-02T00:50:05;99353.84;;;13.00;57.24
58668;BME280;59852;43.086;25.634;2023-05-02T00:52:30;99347.53;;;13.02;57.40
58668;BME280;59852;43.086;25.634;2023-05-02T00:54:56;99357.31;;;13.00;57.43
58668;BME280;59852;43.086;25.634;2023-05-02T00:57:22;99354.56;;;13.02;57.80
58668;BME280;59852;43.086;25.634;2023-05-02T00:59:47;99357.34;;;12.87;58.26
58668;BME280;59852;43.086;25.634;2023-05-02T01:02:33;99354.72;;;12.87;58.59
58668;BME280;59852;43.086;25.634;2023-05-02T01:14:58;99356.31;;;12.77;57.99
58668;BME280;59852;43.086;25.634;2023-05-02T01:17:26;99357.94;;;12.54;58.61
58668;BME280;59852;43.086;25.634;2023-05-02T01:19:57;99353.75;;;12.39;59.22
58668;BME280;59852;43.086;25.634;2023-05-02T01:22:23;99349.22;;;12.28;59.57
58668;BME280;59852;43.086;25.634;2023-05-02T01:29:52;99354.16;;;12.95;55.80
58668;BME280;59852;43.086;25.634;2023-05-02T01:32:20;99348.03;;;12.71;57.45
58668;BME280;59852;43.086;25.634;2023-05-02T01:34:47;99351.63;;;12.70;56.45
58668;BME280;59852;43.086;25.634;2023-05-02T01:37:13;99347.44;;;12.54;57.11
58668;BME280;59852;43.086;25.634;2023-05-02T01:39:39;99345.00;;;12.64;55.39
58668;BME280;59852;43.086;25.634;2023-05-02T01:42:05;99352.19;;;12.86;54.16
58668;BME280;59852;43.086;25.634;2023-05-02T01:44:30;99352.13;;;12.75;53.75
58668;BME280;59852;43.086;25.634;2023-05-02T01:46:58;99352.66;;;12.80;54.60
58668;BME280;59852;43.086;25.634;2023-05-02T01:49:24;99358.72;;;12.68;54.44
58668;BME280;59852;43.086;25.634;2023-05-02T01:51:51;99348.50;;;12.39;55.33
58668;BME280;59852;43.086;25.634;2023-05-02T01:54:17;99358.34;;;12.48;55.18
58668;BME280;59852;43.086;25.634;2023-05-02T01:56:44;99355.50;;;12.64;55.25
58668;BME280;59852;43.086;25.634;2023-05-02T01:59:11;99362.19;;;12.68;55.07
58668;BME280;59852;43.086;25.634;2023-05-02T02:01:38;99361.59;;;12.52;55.90
58668;BME280;59852;43.086;25.634;2023-05-02T02:04:04;99359.69;;;12.67;55.19
58668;BME280;59852;43.086;25.634;2023-05-02T02:06:30;99361.59;;;12.64;54.19
58668;BME280;59852;43.086;25.634;2023-05-02T02:08:56;99360.31;;;12.57;54.60
58668;BME280;59852;43.086;25.634;2023-05-02T02:11:24;99360.56;;;12.54;53.86
58668;BME280;59852;43.086;25.634;2023-05-02T02:13:52;99354.88;;;12.60;52.57
58668;BME280;59852;43.086;25.634;2023-05-02T02:16:23;99364.50;;;12.73;52.56
58668;BME280;59852;43.086;25.634;2023-05-02T02:18:49;99365.00;;;12.78;52.53
58668;BME280;59852;43.086;25.634;2023-05-02T02:21:19;99357.94;;;12.54;52.79
58668;BME280;59852;43.086;25.634;2023-05-02T02:23:46;99359.53;;;12.31;54.20
58668;BME280;59852;43.086;25.634;2023-05-02T02:26:12;99365.06;;;12.27;53.96
58668;BME280;59852;43.086;25.634;2023-05-02T02:28:38;99364.66;;;12.33;52.89
58668;BME280;59852;43.086;25.634;2023-05-02T02:31:04;99361.50;;;12.15;53.47
58668;BME280;59852;43.086;25.634;2023-05-02T02:33:29;99367.25;;;11.95;55.14
58668;BME280;59852;43.086;25.634;2023-05-02T02:36:14;99366.19;;;11.97;55.63
58668;BME280;59852;43.086;25.634;2023-05-02T02:38:49;99363.66;;;11.83;55.49
58668;BME280;59852;43.086;25.634;2023-05-02T02:41:27;99356.84;;;11.81;55.00
58668;BME280;59852;43.086;25.634;2023-05-02T02:44:06;99364.34;;;12.25;53.11
58668;BME280;59852;43.086;25.634;2023-05-02T02:49:30;99360.78;;;12.00;53.79
58668;BME280;59852;43.086;25.634;2023-05-02T02:54:38;99368.53;;;12.27;52.14
58668;BME280;59852;43.086;25.634;2023-05-02T02:57:22;99366.22;;;12.23;52.32
58668;BME280;59852;43.086;25.634;2023-05-02T03:00:00;99369.25;;;12.17;53.37
58668;BME280;59852;43.086;25.634;2023-05-02T03:02:28;99377.63;;;12.09;52.88
58668;BME280;59852;43.086;25.634;2023-05-02T03:04:54;99381.44;;;12.18;54.13
58668;BME280;59852;43.086;25.634;2023-05-02T03:07:21;99381.84;;;12.12;53.32
58668;BME280;59852;43.086;25.634;2023-05-02T03:09:47;99384.03;;;12.18;52.68
58668;BME280;59852;43.086;25.634;2023-05-02T03:12:12;99380.28;;;12.22;54.48
58668;BME280;59852;43.086;25.634;2023-05-02T03:14:38;99385.47;;;11.84;55.99
58668;BME280;59852;43.086;25.634;2023-05-02T03:17:03;99378.91;;;12.03;55.64
58668;BME280;59852;43.086;25.634;2023-05-02T03:19:29;99380.59;;;12.04;54.94
58668;BME280;59852;43.086;25.634;2023-05-02T03:21:54;99387.00;;;12.00;54.60
58668;BME280;59852;43.086;25.634;2023-05-02T03:24:20;99377.22;;;12.02;54.24
58668;BME280;59852;43.086;25.634;2023-05-02T03:26:46;99379.63;;;12.05;53.75
58668;BME280;59852;43.086;25.634;2023-05-02T03:29:14;99382.38;;;12.17;50.69
58668;BME280;59852;43.086;25.634;2023-05-02T03:31:40;99389.50;;;12.15;51.54
58668;BME280;59852;43.086;25.634;2023-05-02T03:34:05;99385.53;;;12.34;51.19
58668;BME280;59852;43.086;25.634;2023-05-02T03:36:30;99384.59;;;12.10;52.27
58668;BME280;59852;43.086;25.634;2023-05-02T03:38:56;99386.66;;;12.18;51.24
58668;BME280;59852;43.086;25.634;2023-05-02T03:41:21;99395.06;;;12.48;52.78
58668;BME280;59852;43.086;25.634;2023-05-02T03:43:49;99402.50;;;12.29;51.69
58668;BME280;59852;43.086;25.634;2023-05-02T03:46:14;99401.19;;;12.61;50.91
58668;BME280;59852;43.086;25.634;2023-05-02T03:48:39;99398.94;;;12.81;50.08
58668;BME280;59852;43.086;25.634;2023-05-02T03:51:05;99403.56;;;12.90;49.92
58668;BME280;59852;43.086;25.634;2023-05-02T03:53:32;99405.72;;;12.96;48.99
58668;BME280;59852;43.086;25.634;2023-05-02T03:55:57;99414.13;;;13.01;50.86
58668;BME280;59852;43.086;25.634;2023-05-02T03:58:23;99413.19;;;13.02;50.56
58668;BME280;59852;43.086;25.634;2023-05-02T04:00:49;99415.88;;;13.13;51.43
58668;BME280;59852;43.086;25.634;2023-05-02T04:03:14;99412.53;;;13.11;51.64
58668;BME280;59852;43.086;25.634;2023-05-02T04:05:40;99411.06;;;13.07;50.57
58668;BME280;59852;43.086;25.634;2023-05-02T04:08:05;99418.94;;;13.07;53.91
58668;BME280;59852;43.086;25.634;2023-05-02T04:10:31;99414.97;;;13.02;54.12
58668;BME280;59852;43.086;25.634;2023-05-02T04:12:56;99421.03;;;13.15;51.64
58668;BME280;59852;43.086;25.634;2023-05-02T04:15:21;99425.34;;;13.29;50.18
58668;BME280;59852;43.086;25.634;2023-05-02T04:17:47;99425.41;;;13.40;48.93
58668;BME280;59852;43.086;25.634;2023-05-02T04:20:12;99431.44;;;13.53;49.11
58668;BME280;59852;43.086;25.634;2023-05-02T04:22:38;99420.00;;;13.54;48.67
58668;BME280;59852;43.086;25.634;2023-05-02T04:25:06;99427.66;;;13.57;48.96
58668;BME280;59852;43.086;25.634;2023-05-02T04:27:31;99427.31;;;13.62;48.71
58668;BME280;59852;43.086;25.634;2023-05-02T04:29:57;99433.19;;;13.65;48.49
58668;BME280;59852;43.086;25.634;2023-05-02T04:32:22;99436.50;;;13.80;49.75
58668;BME280;59852;43.086;25.634;2023-05-02T04:34:48;99433.47;;;13.73;48.83
58668;BME280;59852;43.086;25.634;2023-05-02T04:37:13;99431.13;;;13.82;49.19
58668;BME280;59852;43.086;25.634;2023-05-02T04:39:39;99434.59;;;13.82;49.30
58668;BME280;59852;43.086;25.634;2023-05-02T04:42:04;99421.47;;;13.93;49.73
58668;BME280;59852;43.086;25.634;2023-05-02T04:44:30;99431.44;;;14.01;48.99
58668;BME280;59852;43.086;25.634;2023-05-02T04:46:55;99417.59;;;14.10;48.64
58668;BME280;59852;43.086;25.634;2023-05-02T04:49:20;99422.34;;;14.05;48.70
58668;BME280;59852;43.086;25.634;2023-05-02T04:51:46;99415.94;;;14.20;48.44
58668;BME280;59852;43.086;25.634;2023-05-02T04:54:11;99412.03;;;14.26;48.19
58668;BME280;59852;43.086;25.634;2023-05-02T04:56:37;99415.53;;;14.38;47.83
58668;BME280;59852;43.086;25.634;2023-05-02T04:59:02;99412.88;;;14.38;47.00
58668;BME280;59852;43.086;25.634;2023-05-02T05:01:28;99421.66;;;14.49;47.07
58668;BME280;59852;43.086;25.634;2023-05-02T05:03:53;99423.88;;;14.43;46.61
58668;BME280;59852;43.086;25.634;2023-05-02T05:06:19;99422.84;;;14.45;47.45
58668;BME280;59852;43.086;25.634;2023-05-02T05:08:44;99425.16;;;14.61;47.92
58668;BME280;59852;43.086;25.634;2023-05-02T05:11:10;99425.66;;;14.66;46.48
58668;BME280;59852;43.086;25.634;2023-05-02T05:13:36;99424.56;;;14.57;46.09
58668;BME280;59852;43.086;25.634;2023-05-02T05:16:01;99426.47;;;14.67;45.86
58668;BME280;59852;43.086;25.634;2023-05-02T05:18:27;99429.59;;;14.72;46.11
58668;BME280;59852;43.086;25.634;2023-05-02T05:20:52;99432.47;;;14.80;46.63
58668;BME280;59852;43.086;25.634;2023-05-02T05:23:18;99434.50;;;14.76;46.85
58668;BME280;59852;43.086;25.634;2023-05-02T05:25:43;99432.59;;;14.32;45.03
58668;BME280;59852;43.086;25.634;2023-05-02T05:28:08;99439.44;;;13.99;44.38
58668;BME280;59852;43.086;25.634;2023-05-02T05:30:34;99431.22;;;14.15;44.80
58668;BME280;59852;43.086;25.634;2023-05-02T05:33:01;99432.34;;;14.59;44.70
58668;BME280;59852;43.086;25.634;2023-05-02T05:35:26;99430.31;;;14.85;45.89
58668;BME280;59852;43.086;25.634;2023-05-02T05:37:51;99437.72;;;15.02;47.38
58668;BME280;59852;43.086;25.634;2023-05-02T05:40:17;99434.00;;;14.93;45.97
58668;BME280;59852;43.086;25.634;2023-05-02T05:42:43;99437.81;;;15.23;51.27
58668;BME280;59852;43.086;25.634;2023-05-02T05:45:08;99432.94;;;15.07;43.58
58668;BME280;59852;43.086;25.634;2023-05-02T05:47:34;99437.94;;;15.21;43.30
58668;BME280;59852;43.086;25.634;2023-05-02T05:49:59;99433.97;;;15.38;45.45
58668;BME280;59852;43.086;25.634;2023-05-02T05:52:25;99429.47;;;15.18;44.64
58668;BME280;59852;43.086;25.634;2023-05-02T05:54:54;99433.63;;;15.20;45.09
58668;BME280;59852;43.086;25.634;2023-05-02T05:57:22;99440.47;;;15.23;43.23
58668;BME280;59852;43.086;25.634;2023-05-02T05:59:48;99437.06;;;15.43;43.20
58668;BME280;59852;43.086;25.634;2023-05-02T06:02:13;99443.22;;;15.44;42.04
58668;BME280;59852;43.086;25.634;2023-05-02T06:04:39;99443.53;;;15.50;41.83
58668;BME280;59852;43.086;25.634;2023-05-02T06:07:04;99441.38;;;15.67;41.00
58668;BME280;59852;43.086;25.634;2023-05-02T06:09:30;99447.84;;;15.74;40.50
58668;BME280;59852;43.086;25.634;2023-05-02T06:11:55;99443.72;;;15.81;40.56
58668;BME280;59852;43.086;25.634;2023-05-02T06:14:21;99431.34;;;15.82;41.03
58668;BME280;59852;43.086;25.634;2023-05-02T06:16:46;99430.72;;;15.89;41.09
58668;BME280;59852;43.086;25.634;2023-05-02T06:19:11;99428.56;;;15.94;37.79
58668;BME280;59852;43.086;25.634;2023-05-02T06:21:37;99428.97;;;16.11;38.37
58668;BME280;59852;43.086;25.634;2023-05-02T06:24:02;99433.72;;;16.17;37.78
58668;BME280;59852;43.086;25.634;2023-05-02T06:26:28;99434.84;;;16.14;37.88
58668;BME280;59852;43.086;25.634;2023-05-02T06:28:53;99431.31;;;16.25;39.17
58668;BME280;59852;43.086;25.634;2023-05-02T06:31:19;99430.88;;;16.50;38.04
58668;BME280;59852;43.086;25.634;2023-05-02T06:33:44;99429.69;;;16.54;37.06
58668;BME280;59852;43.086;25.634;2023-05-02T06:36:10;99426.00;;;16.46;36.61
58668;BME280;59852;43.086;25.634;2023-05-02T06:38:35;99428.00;;;16.53;39.30
58668;BME280;59852;43.086;25.634;2023-05-02T06:41:00;99430.19;;;16.69;38.71
58668;BME280;59852;43.086;25.634;2023-05-02T06:43:26;99424.44;;;16.64;36.57
58668;BME280;59852;43.086;25.634;2023-05-02T06:45:52;99422.13;;;16.50;35.42
58668;BME280;59852;43.086;25.634;2023-05-02T06:48:18;99427.31;;;16.72;36.36
58668;BME280;59852;43.086;25.634;2023-05-02T06:50:44;99425.28;;;16.64;36.68
58668;BME280;59852;43.086;25.634;2023-05-02T06:53:09;99430.44;;;16.66;34.50
58668;BME280;59852;43.086;25.634;2023-05-02T06:55:34;99429.19;;;16.91;36.15
58668;BME280;59852;43.086;25.634;2023-05-02T06:58:00;99427.16;;;17.04;36.26
58668;BME280;59852;43.086;25.634;2023-05-02T07:00:25;99421.75;;;17.06;36.18
58668;BME280;59852;43.086;25.634;2023-05-02T07:02:50;99439.72;;;17.12;34.96
58668;BME280;59852;43.086;25.634;2023-05-02T07:05:16;99426.59;;;17.10;35.12
58668;BME280;59852;43.086;25.634;2023-05-02T07:07:41;99430.03;;;17.32;35.04
58668;BME280;59852;43.086;25.634;2023-05-02T07:10:07;99430.44;;;17.37;35.46
58668;BME280;59852;43.086;25.634;2023-05-02T07:12:32;99432.97;;;17.48;33.61
58668;BME280;59852;43.086;25.634;2023-05-02T07:14:58;99422.81;;;17.43;34.44
58668;BME280;59852;43.086;25.634;2023-05-02T07:17:23;99431.19;;;17.58;32.52
58668;BME280;59852;43.086;25.634;2023-05-02T07:19:49;99438.41;;;17.46;32.54
58668;BME280;59852;43.086;25.634;2023-05-02T07:22:15;99436.13;;;17.72;32.94
58668;BME280;59852;43.086;25.634;2023-05-02T07:24:41;99434.72;;;17.78;34.76
58668;BME280;59852;43.086;25.634;2023-05-02T07:27:09;99437.78;;;17.83;33.50
58668;BME280;59852;43.086;25.634;2023-05-02T07:29:35;99435.44;;;17.80;32.72
58668;BME280;59852;43.086;25.634;2023-05-02T07:32:00;99425.69;;;17.90;35.14
58668;BME280;59852;43.086;25.634;2023-05-02T07:34:26;99437.13;;;18.00;34.04
58668;BME280;59852;43.086;25.634;2023-05-02T07:36:51;99436.13;;;18.11;33.42
58668;BME280;59852;43.086;25.634;2023-05-02T07:39:17;99433.47;;;18.21;33.62
58668;BME280;59852;43.086;25.634;2023-05-02T07:41:42;99430.53;;;18.33;34.23
58668;BME280;59852;43.086;25.634;2023-05-02T07:44:07;99425.38;;;18.32;34.20
58668;BME280;59852;43.086;25.634;2023-05-02T07:46:33;99421.06;;;18.21;31.96
58668;BME280;59852;43.086;25.634;2023-05-02T07:48:58;99419.22;;;18.41;32.59
58668;BME280;59852;43.086;25.634;2023-05-02T07:51:23;99422.38;;;18.64;31.74
58668;BME280;59852;43.086;25.634;2023-05-02T07:53:50;99419.31;;;18.78;32.55
58668;BME280;59852;43.086;25.634;2023-05-02T07:56:18;99423.47;;;18.81;31.90
58668;BME280;59852;43.086;25.634;2023-05-02T07:58:43;99423.88;;;18.76;31.40
58668;BME280;59852;43.086;25.634;2023-05-02T08:01:09;99415.50;;;18.81;30.41
58668;BME280;59852;43.086;25.634;2023-05-02T08:03:34;99404.38;;;19.05;31.36
58668;BME280;59852;43.086;25.634;2023-05-02T08:05:59;99416.19;;;19.20;31.05
58668;BME280;59852;43.086;25.634;2023-05-02T08:08:26;99426.63;;;19.22;30.20
58668;BME280;59852;43.086;25.634;2023-05-02T08:10:52;99415.56;;;19.26;31.36
58668;BME280;59852;43.086;25.634;2023-05-02T08:13:17;99417.00;;;19.20;29.56
58668;BME280;59852;43.086;25.634;2023-05-02T08:15:43;99410.09;;;19.37;29.80
58668;BME280;59852;43.086;25.634;2023-05-02T08:18:08;99409.63;;;19.42;28.79
58668;BME280;59852;43.086;25.634;2023-05-02T08:20:34;99411.69;;;19.48;31.08
58668;BME280;59852;43.086;25.634;2023-05-02T08:22:59;99412.69;;;19.65;27.96
58668;BME280;59852;43.086;25.634;2023-05-02T08:25:25;99415.84;;;19.78;28.34
58668;BME280;59852;43.086;25.634;2023-05-02T08:27:50;99418.41;;;19.70;30.17
58668;BME280;59852;43.086;25.634;2023-05-02T08:30:15;99423.78;;;19.60;27.74
58668;BME280;59852;43.086;25.634;2023-05-02T08:32:41;99411.44;;;19.69;28.43
58668;BME280;59852;43.086;25.634;2023-05-02T08:35:07;99412.72;;;19.83;28.73
58668;BME280;59852;43.086;25.634;2023-05-02T08:37:32;99427.66;;;20.01;29.48
58668;BME280;59852;43.086;25.634;2023-05-02T08:39:58;99407.72;;;19.80;28.15
58668;BME280;59852;43.086;25.634;2023-05-02T08:42:24;99407.63;;;20.07;28.95
58668;BME280;59852;43.086;25.634;2023-05-02T08:44:50;99419.66;;;20.19;26.94
58668;BME280;59852;43.086;25.634;2023-05-02T08:47:15;99407.22;;;20.20;27.95
58668;BME280;59852;43.086;25.634;2023-05-02T08:49:42;99415.13;;;20.12;26.02
58668;BME280;59852;43.086;25.634;2023-05-02T08:52:08;99412.22;;;20.23;25.95
58668;BME280;59852;43.086;25.634;2023-05-02T08:54:36;99397.41;;;20.38;26.21
58668;BME280;59852;43.086;25.634;2023-05-02T08:57:02;99409.28;;;20.52;26.70
58668;BME280;59852;43.086;25.634;2023-05-02T08:59:28;99410.47;;;20.14;25.39
58668;BME280;59852;43.086;25.634;2023-05-02T09:01:54;99410.81;;;19.93;26.18
58668;BME280;59852;43.086;25.634;2023-05-02T09:04:23;99405.66;;;20.35;30.36
58668;BME280;59852;43.086;25.634;2023-05-02T09:06:51;99413.22;;;20.22;26.61
58668;BME280;59852;43.086;25.634;2023-05-02T09:09:16;99393.38;;;20.34;26.43
58668;BME280;59852;43.086;25.634;2023-05-02T09:11:44;99412.94;;;20.07;25.84
58668;BME280;59852;43.086;25.634;2023-05-02T09:14:13;99402.16;;;20.09;25.47
58668;BME280;59852;43.086;25.634;2023-05-02T09:16:39;99400.31;;;20.53;28.94
58668;BME280;59852;43.086;25.634;2023-05-02T09:19:04;99393.59;;;20.41;29.66
58668;BME280;59852;43.086;25.634;2023-05-02T09:21:37;99397.50;;;20.54;27.24
58668;BME280;59852;43.086;25.634;2023-05-02T09:24:20;99380.91;;;20.52;29.68
58668;BME280;59852;43.086;25.634;2023-05-02T09:27:04;99405.75;;;20.43;28.65
58668;BME280;59852;43.086;25.634;2023-05-02T09:29:30;99391.47;;;20.44;25.63
58668;BME280;59852;43.086;25.634;2023-05-02T09:32:00;99382.28;;;20.65;26.46
58668;BME280;59852;43.086;25.634;2023-05-02T09:34:25;99399.38;;;20.88;26.51
58668;BME280;59852;43.086;25.634;2023-05-02T09:36:51;99393.16;;;20.27;25.09
58668;BME280;59852;43.086;25.634;2023-05-02T09:39:23;99385.38;;;20.78;25.04
58668;BME280;59852;43.086;25.634;2023-05-02T09:41:48;99383.28;;;20.38;25.18
58668;BME280;59852;43.086;25.634;2023-05-02T09:44:15;99381.94;;;20.94;27.13
58668;BME280;59852;43.086;25.634;2023-05-02T09:46:43;99377.78;;;20.91;26.42
58668;BME280;59852;43.086;25.634;2023-05-02T09:49:08;99385.94;;;20.98;26.83
58668;BME280;59852;43.086;25.634;2023-05-02T09:51:34;99384.75;;;20.92;25.05
58668;BME280;59852;43.086;25.634;2023-05-02T09:54:00;99371.25;;;20.77;24.51
58668;BME280;59852;43.086;25.634;2023-05-02T09:56:25;99390.66;;;21.12;25.72
58668;BME280;59852;43.086;25.634;2023-05-02T09:58:50;99373.13;;;21.27;26.29
58668;BME280;59852;43.086;25.634;2023-05-02T10:01:16;99369.81;;;20.99;25.13
58668;BME280;59852;43.086;25.634;2023-05-02T10:03:44;99377.78;;;21.33;26.93
58668;BME280;59852;43.086;25.634;2023-05-02T10:06:10;99372.84;;;21.12;25.40
58668;BME280;59852;43.086;25.634;2023-05-02T10:08:36;99375.91;;;21.26;25.08
58668;BME280;59852;43.086;25.634;2023-05-02T10:11:03;99367.41;;;21.22;25.10
58668;BME280;59852;43.086;25.634;2023-05-02T10:13:31;99361.50;;;21.36;25.23
58668;BME280;59852;43.086;25.634;2023-05-02T10:15:59;99368.91;;;21.16;25.02
58668;BME280;59852;43.086;25.634;2023-05-02T10:18:26;99349.19;;;21.52;26.09
58668;BME280;59852;43.086;25.634;2023-05-02T10:20:56;99363.66;;;21.41;26.16
58668;BME280;59852;43.086;25.634;2023-05-02T10:23:24;99372.31;;;21.51;27.57
58668;BME280;59852;43.086;25.634;2023-05-02T10:25:50;99348.06;;;20.96;26.13
58668;BME280;59852;43.086;25.634;2023-05-02T10:28:15;99350.53;;;21.39;27.38
58668;BME280;59852;43.086;25.634;2023-05-02T10:30:41;99365.22;;;21.09;25.78
58668;BME280;59852;43.086;25.634;2023-05-02T10:33:07;99354.03;;;21.48;27.19
58668;BME280;59852;43.086;25.634;2023-05-02T10:35:33;99345.53;;;21.53;26.66
58668;BME280;59852;43.086;25.634;2023-05-02T10:37:59;99336.09;;;21.66;25.98
58668;BME280;59852;43.086;25.634;2023-05-02T10:40:25;99348.91;;;21.79;27.14
58668;BME280;59852;43.086;25.634;2023-05-02T10:42:51;99346.41;;;21.69;24.82
58668;BME280;59852;43.086;25.634;2023-05-02T10:45:33;99334.06;;;21.36;23.57
58668;BME280;59852;43.086;25.634;2023-05-02T10:50:47;99335.41;;;21.81;23.45
58668;BME280;59852;43.086;25.634;2023-05-02T10:58:31;99337.22;;;21.47;23.40
58668;BME280;59852;43.086;25.634;2023-05-02T11:01:12;99337.09;;;21.73;26.11
58668;BME280;59852;43.086;25.634;2023-05-02T11:03:55;99333.22;;;21.92;24.58
58668;BME280;59852;43.086;25.634;2023-05-02T11:06:21;99327.91;;;22.00;24.78
58668;BME280;59852;43.086;25.634;2023-05-02T11:08:47;99340.75;;;22.05;24.49
58668;BME280;59852;43.086;25.634;2023-05-02T11:13:56;99335.41;;;22.21;25.59
58668;BME280;59852;43.086;25.634;2023-05-02T11:16:21;99323.06;;;22.20;24.17
58668;BME280;59852;43.086;25.634;2023-05-02T11:18:59;99324.75;;;22.21;23.65
58668;BME280;59852;43.086;25.634;2023-05-02T11:21:27;99312.22;;;22.30;23.38
58668;BME280;59852;43.086;25.634;2023-05-02T11:24:35;99321.25;;;21.88;23.55
58668;BME280;59852;43.086;25.634;2023-05-02T11:26:38;99330.75;;;21.83;25.35
58668;BME280;59852;43.086;25.634;2023-05-02T11:29:04;99324.56;;;22.31;24.37
58668;BME280;59852;43.086;25.634;2023-05-02T11:33:55;99321.19;;;22.45;24.58
58668;BME280;59852;43.086;25.634;2023-05-02T11:36:27;99319.72;;;22.35;24.53
58668;BME280;59852;43.086;25.634;2023-05-02T11:38:53;99314.06;;;22.29;24.28
58668;BME280;59852;43.086;25.634;2023-05-02T11:41:19;99307.16;;;22.59;24.51
58668;BME280;59852;43.086;25.634;2023-05-02T11:43:44;99315.31;;;22.58;26.10
58668;BME280;59852;43.086;25.634;2023-05-02T11:46:10;99314.25;;;22.28;24.27
58668;BME280;59852;43.086;25.634;2023-05-02T11:48:35;99310.38;;;22.39;24.33
58668;BME280;59852;43.086;25.634;2023-05-02T11:51:01;99304.66;;;22.58;24.38
58668;BME280;59852;43.086;25.634;2023-05-02T11:53:29;99308.19;;;22.50;23.65
58668;BME280;59852;43.086;25.634;2023-05-02T11:55:56;99291.50;;;22.96;24.13
58668;BME280;59852;43.086;25.634;2023-05-02T11:58:22;99298.78;;;22.15;22.80
58668;BME280;59852;43.086;25.634;2023-05-02T12:00:48;99290.25;;;22.28;24.53
58668;BME280;59852;43.086;25.634;2023-05-02T12:03:35;99287.72;;;22.43;23.39
58668;BME280;59852;43.086;25.634;2023-05-02T12:06:09;99289.94;;;22.70;24.21
58668;BME280;59852;43.086;25.634;2023-05-02T12:08:35;99274.31;;;22.59;23.71
58668;BME280;59852;43.086;25.634;2023-05-02T12:11:01;99276.56;;;22.78;22.97
58668;BME280;59852;43.086;25.634;2023-05-02T12:13:26;99276.69;;;22.54;21.59
58668;BME280;59852;43.086;25.634;2023-05-02T12:15:52;99278.38;;;22.47;22.63
58668;BME280;59852;43.086;25.634;2023-05-02T12:18:19;99273.25;;;22.76;22.79
58668;BME280;59852;43.086;25.634;2023-05-02T12:20:47;99264.38;;;22.92;23.12
58668;BME280;59852;43.086;25.634;2023-05-02T12:23:13;99273.72;;;22.80;23.01
58668;BME280;59852;43.086;25.634;2023-05-02T12:25:39;99277.59;;;22.69;22.70
58668;BME280;59852;43.086;25.634;2023-05-02T12:28:05;99267.25;;;22.35;22.81
58668;BME280;59852;43.086;25.634;2023-05-02T12:30:31;99266.25;;;22.75;23.26
58668;BME280;59852;43.086;25.634;2023-05-02T12:33:00;99270.41;;;22.86;23.11
58668;BME280;59852;43.086;25.634;2023-05-02T12:35:26;99257.84;;;22.55;24.41
58668;BME280;59852;43.086;25.634;2023-05-02T12:37:52;99252.75;;;22.85;23.22
58668;BME280;59852;43.086;25.634;2023-05-02T12:40:21;99258.59;;;23.11;24.76
58668;BME280;59852;43.086;25.634;2023-05-02T12:43:01;99251.34;;;22.58;23.21
58668;BME280;59852;43.086;25.634;2023-05-02T12:45:31;99249.91;;;22.78;23.86
58668;BME280;59852;43.086;25.634;2023-05-02T12:47:59;99249.94;;;22.70;23.29
58668;BME280;59852;43.086;25.634;2023-05-02T12:50:35;99250.28;;;22.67;26.02
58668;BME280;59852;43.086;25.634;2023-05-02T12:53:01;99234.53;;;22.80;22.99
58668;BME280;59852;43.086;25.634;2023-05-02T12:55:28;99230.53;;;22.93;23.18
58668;BME280;59852;43.086;25.634;2023-05-02T12:58:02;99230.84;;;22.89;24.42
58668;BME280;59852;43.086;25.634;2023-05-02T13:00:28;99235.66;;;22.63;25.87
58668;BME280;59852;43.086;25.634;2023-05-02T13:02:53;99234.19;;;22.92;24.35
58668;BME280;59852;43.086;25.634;2023-05-02T13:05:19;99223.41;;;23.08;25.74
58668;BME280;59852;43.086;25.634;2023-05-02T13:07:44;99221.31;;;23.18;25.86
58668;BME280;59852;43.086;25.634;2023-05-02T13:10:10;99220.50;;;22.95;24.95
58668;BME280;59852;43.086;25.634;2023-05-02T13:12:36;99211.56;;;22.79;24.19
58668;BME280;59852;43.086;25.634;2023-05-02T13:15:06;99229.38;;;22.87;23.55
58668;BME280;59852;43.086;25.634;2023-05-02T13:17:32;99226.63;;;22.72;23.02
58668;BME280;59852;43.086;25.634;2023-05-02T13:19:57;99217.94;;;22.70;23.57
58668;BME280;59852;43.086;25.634;2023-05-02T13:22:23;99211.72;;;22.86;23.08